createdAt,value
2022-10-22T00:01:30.840Z,31.42
2022-10-22T00:04:02.973Z,31.15
2022-10-22T00:06:34.541Z,31.92
2022-10-22T00:09:06.715Z,30.60
2022-10-22T00:11:38.361Z,31.98
2022-10-22T00:14:10.281Z,31.13
2022-10-22T00:19:31.970Z,32.97
2022-10-22T00:22:05.879Z,31.90
2022-10-22T00:24:39.397Z,31.77
2022-10-22T00:27:13.270Z,30.17
2022-10-22T00:29:45.593Z,30.30
2022-10-22T00:32:19.769Z,29.83
2022-10-22T00:34:51.741Z,29.83
2022-10-22T00:37:23.362Z,29.17
2022-10-22T00:39:55.551Z,28.60
2022-10-22T00:42:30.394Z,31.05
2022-10-22T00:45:18.982Z,31.25
2022-10-22T00:47:59.380Z,31.27
2022-10-22T00:50:36.011Z,32.58
2022-10-22T00:53:11.811Z,31.80
2022-10-22T00:55:46.923Z,31.10
2022-10-22T00:58:21.400Z,30.67
2022-10-22T01:00:53.638Z,29.33
2022-10-22T01:03:28.362Z,27.20
2022-10-22T01:06:03.104Z,29.98
2022-10-22T01:08:44.792Z,32.67
2022-10-22T01:11:24.341Z,32.05
2022-10-22T01:14:11.880Z,33.22
2022-10-22T01:16:51.174Z,33.30
2022-10-22T01:19:49.021Z,31.58
2022-10-22T01:22:29.681Z,33.08
2022-10-22T01:25:03.400Z,32.53
2022-10-22T01:27:57.741Z,33.78
2022-10-22T01:30:32.252Z,31.35
2022-10-22T01:33:08.552Z,29.85
2022-10-22T01:35:43.492Z,32.75
2022-10-22T01:38:18.241Z,30.83
2022-10-22T01:40:51.171Z,30.10
2022-10-22T01:43:23.701Z,30.20
2022-10-22T01:46:02.351Z,29.60
2022-10-22T01:48:44.121Z,28.20
2022-10-22T01:51:44.490Z,27.85
2022-10-22T01:54:30.889Z,29.65
2022-10-22T01:57:12.092Z,29.85
2022-10-22T02:00:04.151Z,30.20
2022-10-22T02:02:52.893Z,30.50
2022-10-22T02:05:28.334Z,29.77
2022-10-22T02:08:04.961Z,31.00
2022-10-22T02:10:41.261Z,30.25
2022-10-22T02:13:19.041Z,30.95
2022-10-22T02:15:54.801Z,31.63
2022-10-22T02:18:36.404Z,29.55
2022-10-22T02:21:18.534Z,31.50
2022-10-22T02:23:51.523Z,28.52
2022-10-22T02:26:28.291Z,29.00
2022-10-22T02:29:06.321Z,28.83
2022-10-22T02:31:42.508Z,28.00
2022-10-22T02:34:22.812Z,29.30
2022-10-22T02:36:56.242Z,29.83
2022-10-22T02:39:29.821Z,29.50
2022-10-22T02:42:01.861Z,30.35
2022-10-22T02:44:33.589Z,30.23
2022-10-22T02:47:05.700Z,28.60
2022-10-22T02:49:39.891Z,30.52
2022-10-22T02:52:11.854Z,31.70
2022-10-22T02:54:43.520Z,30.98
2022-10-22T02:57:15.616Z,30.23
2022-10-22T02:59:47.222Z,30.45
2022-10-22T03:02:19.561Z,31.63
2022-10-22T03:04:53.999Z,30.70
2022-10-22T03:07:25.961Z,30.50
2022-10-22T03:09:57.572Z,30.90
2022-10-22T03:12:29.551Z,30.67
2022-10-22T03:15:01.170Z,29.77
2022-10-22T03:17:33.161Z,31.00
2022-10-22T03:20:08.002Z,30.35
2022-10-22T03:22:43.541Z,30.33
2022-10-22T03:25:19.699Z,30.08
2022-10-22T03:27:53.461Z,29.60
2022-10-22T03:30:25.121Z,30.98
2022-10-22T03:32:57.150Z,28.23
2022-10-22T03:35:31.549Z,29.67
2022-10-22T03:38:04.550Z,28.52
2022-10-22T03:40:36.331Z,29.63
2022-10-22T03:43:08.400Z,29.55
2022-10-22T03:45:39.963Z,27.80
2022-10-22T03:48:12.141Z,29.23
2022-10-22T03:50:46.371Z,28.70
2022-10-22T03:53:18.432Z,26.90
2022-10-22T03:55:50.202Z,28.92
2022-10-22T03:58:22.223Z,29.73
2022-10-22T04:00:53.835Z,28.85
2022-10-22T04:03:46.088Z,28.67
2022-10-22T04:06:20.651Z,28.42
2022-10-22T04:08:53.000Z,27.67
2022-10-22T04:11:24.669Z,29.00
2022-10-22T04:13:56.703Z,28.05
2022-10-22T04:16:31.170Z,27.98
2022-10-22T04:19:03.120Z,30.02
2022-10-22T04:21:37.772Z,29.85
2022-10-22T04:24:09.891Z,28.40
2022-10-22T04:26:41.292Z,28.83
2022-10-22T04:29:16.050Z,27.52
2022-10-22T04:31:47.881Z,28.02
2022-10-22T04:34:19.633Z,28.00
2022-10-22T04:36:53.482Z,25.85
2022-10-22T04:39:25.272Z,28.38
2022-10-22T04:41:56.670Z,28.23
2022-10-22T04:44:28.429Z,27.00
2022-10-22T04:46:59.721Z,27.73
2022-10-22T04:49:31.531Z,27.00
2022-10-22T04:52:05.471Z,25.85
2022-10-22T04:54:37.403Z,26.42
2022-10-22T04:57:08.910Z,25.85
2022-10-22T04:59:40.890Z,26.27
2022-10-22T05:02:12.212Z,26.35
2022-10-22T05:04:44.200Z,25.63
2022-10-22T05:07:18.453Z,26.70
2022-10-22T05:09:50.081Z,26.15
2022-10-22T05:12:21.422Z,26.55
2022-10-22T05:14:53.140Z,26.92
2022-10-22T05:17:24.459Z,27.17
2022-10-22T05:19:56.170Z,26.92
2022-10-22T05:22:29.992Z,27.45
2022-10-22T05:25:01.885Z,27.98
2022-10-22T05:27:33.312Z,28.05
2022-10-22T05:30:05.021Z,27.15
2022-10-22T05:32:38.140Z,28.88
2022-10-22T05:35:10.253Z,28.65
2022-10-22T05:37:46.370Z,30.48
2022-10-22T05:40:30.205Z,31.13
2022-10-22T05:43:02.701Z,30.83
2022-10-22T05:45:34.360Z,30.63
2022-10-22T05:48:05.631Z,28.25
2022-10-22T05:50:39.241Z,29.50
2022-10-22T05:53:13.881Z,27.65
2022-10-22T05:55:45.550Z,29.27
2022-10-22T05:58:17.331Z,28.95
2022-10-22T06:00:49.050Z,28.00
2022-10-22T06:03:20.340Z,28.13
2022-10-22T06:05:52.013Z,28.23
2022-10-22T06:08:26.202Z,29.05
2022-10-22T06:10:58.022Z,28.27
2022-10-22T06:13:29.501Z,26.70
2022-10-22T06:16:01.450Z,28.45
2022-10-22T06:18:32.779Z,28.88
2022-10-22T06:21:08.961Z,30.05
2022-10-22T06:23:43.823Z,30.75
2022-10-22T06:26:18.243Z,30.05
2022-10-22T06:28:49.821Z,29.73
2022-10-22T06:31:22.061Z,28.45
2022-10-22T06:33:53.682Z,29.20
2022-10-22T06:36:27.822Z,28.27
2022-10-22T06:39:02.221Z,30.27
2022-10-22T06:41:34.557Z,27.52
2022-10-22T06:44:06.150Z,27.70
2022-10-22T06:46:41.226Z,27.17
2022-10-22T06:49:17.421Z,26.60
2022-10-22T06:51:52.551Z,29.08
2022-10-22T06:54:27.455Z,25.92
2022-10-22T06:56:59.471Z,24.17
2022-10-22T06:59:31.081Z,25.45
2022-10-22T07:02:03.078Z,26.20
2022-10-22T07:04:34.681Z,24.77
2022-10-22T07:07:06.614Z,25.95
2022-10-22T07:09:40.938Z,24.65
2022-10-22T07:12:14.034Z,25.00
2022-10-22T07:14:45.750Z,24.20
2022-10-22T07:17:17.802Z,22.90
2022-10-22T07:19:51.264Z,22.50
2022-10-22T07:22:24.222Z,22.77
2022-10-22T07:30:48.060Z,22.67
2022-10-22T07:33:20.481Z,23.35
2022-10-22T07:35:52.262Z,23.02
2022-10-22T07:38:24.461Z,24.75
2022-10-22T07:40:59.361Z,24.80
2022-10-22T07:43:31.661Z,23.42
2022-10-22T07:46:03.420Z,22.25
2022-10-22T07:48:35.587Z,23.20
2022-10-22T07:51:08.022Z,25.77
2022-10-22T07:53:40.600Z,19.98
2022-10-22T07:56:15.241Z,20.23
2022-10-22T07:58:47.491Z,21.65
2022-10-22T08:01:19.319Z,22.38
2022-10-22T08:03:52.082Z,22.83
2022-10-22T08:06:23.844Z,22.08
2022-10-22T08:08:56.026Z,23.70
2022-10-22T08:11:31.330Z,24.38
2022-10-22T08:14:03.567Z,24.88
2022-10-22T08:16:35.361Z,23.27
2022-10-22T08:19:07.761Z,25.10
2022-10-22T08:21:39.503Z,22.13
2022-10-22T08:24:11.849Z,25.58
2022-10-22T08:26:50.489Z,23.42
2022-10-22T08:29:23.540Z,22.17
2022-10-22T08:31:55.988Z,22.90
2022-10-22T08:34:28.302Z,22.13
2022-10-22T08:37:00.182Z,22.63
2022-10-22T08:39:32.541Z,21.13
2022-10-22T08:42:24.222Z,23.67
2022-10-22T08:45:11.761Z,22.95
2022-10-22T08:48:02.083Z,22.67
2022-10-22T08:50:38.821Z,21.23
2022-10-22T08:53:17.610Z,20.20
2022-10-22T08:55:50.431Z,19.13
2022-10-22T08:58:31.064Z,22.90
2022-10-22T09:01:05.313Z,24.02
2022-10-22T09:03:48.241Z,20.80
2022-10-22T09:06:24.429Z,21.05
2022-10-22T09:08:57.869Z,21.58
2022-10-22T09:11:33.722Z,20.38
2022-10-22T09:14:09.229Z,22.60
2022-10-22T09:17:01.629Z,22.05
2022-10-22T09:19:38.983Z,19.63
2022-10-22T09:22:21.701Z,19.52
2022-10-22T09:25:01.218Z,20.02
2022-10-22T09:27:34.754Z,18.48
2022-10-22T09:30:10.872Z,18.45
2022-10-22T09:32:43.474Z,19.33
2022-10-22T09:35:16.412Z,18.45
2022-10-22T09:37:53.892Z,19.73
2022-10-22T09:40:25.912Z,16.38
2022-10-22T09:42:57.892Z,17.10
2022-10-22T09:45:32.011Z,17.27
2022-10-22T09:48:15.233Z,17.48
2022-10-22T09:50:48.853Z,16.83
2022-10-22T09:53:25.155Z,17.80
2022-10-22T09:55:58.452Z,16.77
2022-10-22T09:58:30.922Z,18.27
2022-10-22T10:01:05.552Z,17.08
2022-10-22T10:03:37.851Z,17.23
2022-10-22T10:06:10.372Z,18.67
2022-10-22T10:08:42.376Z,17.50
2022-10-22T10:11:22.771Z,17.48
2022-10-22T10:14:10.134Z,17.50
2022-10-22T10:16:53.119Z,17.85
2022-10-22T10:19:37.052Z,17.85
2022-10-22T10:22:16.524Z,17.88
2022-10-22T10:25:23.104Z,19.77
2022-10-22T10:28:02.423Z,17.67
2022-10-22T10:30:36.426Z,18.85
2022-10-22T10:33:24.785Z,18.50
2022-10-22T10:36:30.965Z,19.00
2022-10-22T10:39:08.172Z,18.30
2022-10-22T10:41:53.006Z,19.27
2022-10-22T10:44:50.685Z,19.98
2022-10-22T10:47:35.697Z,19.08
2022-10-22T10:50:22.195Z,19.55
2022-10-22T10:53:05.866Z,19.98
2022-10-22T10:55:56.125Z,18.88
2022-10-22T10:58:37.625Z,20.80
2022-10-22T11:01:21.439Z,21.20
2022-10-22T11:04:24.326Z,20.33
2022-10-22T11:07:11.033Z,19.30
2022-10-22T11:09:47.925Z,18.55
2022-10-22T11:12:25.606Z,20.23
2022-10-22T11:15:05.684Z,17.92
2022-10-22T11:17:42.585Z,20.58
2022-10-22T11:20:21.586Z,17.33
2022-10-22T11:23:18.946Z,18.17
2022-10-22T11:25:53.253Z,18.00
2022-10-22T11:28:30.966Z,17.33
2022-10-22T11:31:06.944Z,15.80
2022-10-22T11:33:47.106Z,15.82
2022-10-22T11:36:21.689Z,15.20
2022-10-22T11:38:56.064Z,14.85
2022-10-22T11:41:32.189Z,14.88
2022-10-22T11:44:15.110Z,15.65
2022-10-22T11:46:56.846Z,15.40
2022-10-22T11:49:30.416Z,14.80
2022-10-22T11:52:28.303Z,14.23
2022-10-22T11:55:05.648Z,15.50
2022-10-22T11:57:40.585Z,15.15
2022-10-22T12:00:35.949Z,14.80
2022-10-22T12:03:36.767Z,13.00
2022-10-22T12:06:29.931Z,13.25
2022-10-22T12:09:06.003Z,13.23
2022-10-22T12:11:55.861Z,11.90
2022-10-22T12:14:33.222Z,11.73
2022-10-22T12:17:30.670Z,11.13
2022-10-22T12:20:13.757Z,10.20
2022-10-22T12:22:54.859Z,9.95
2022-10-22T12:25:35.896Z,9.25
2022-10-22T12:28:19.216Z,9.13
2022-10-22T12:30:52.806Z,8.75
2022-10-22T12:33:27.107Z,8.13
2022-10-22T12:36:04.226Z,8.38
2022-10-22T12:38:48.585Z,8.40
2022-10-22T12:41:25.863Z,7.90
2022-10-22T12:44:05.819Z,8.10
2022-10-22T12:46:38.625Z,7.25
2022-10-22T12:49:27.311Z,5.90
2022-10-22T12:51:58.573Z,5.93
2022-10-22T12:54:38.367Z,5.32
2022-10-22T12:57:15.823Z,4.95
2022-10-22T12:59:55.043Z,5.72
2022-10-22T13:02:31.015Z,5.05
2022-10-22T13:05:30.583Z,4.68
2022-10-22T13:08:20.729Z,4.75
2022-10-22T13:10:54.356Z,4.10
2022-10-22T13:13:35.347Z,4.95
2022-10-22T13:16:24.972Z,4.10
2022-10-22T13:18:57.789Z,4.40
2022-10-22T13:21:38.263Z,3.90
2022-10-22T13:24:24.605Z,4.22
2022-10-22T13:26:58.060Z,4.22
2022-10-22T13:29:30.008Z,4.00
2022-10-22T13:32:04.273Z,3.85
2022-10-22T13:34:36.853Z,3.95
2022-10-22T13:37:12.110Z,3.83
2022-10-22T13:44:27.583Z,3.22
2022-10-22T13:46:59.458Z,3.25
2022-10-22T13:49:33.702Z,3.50
2022-10-22T13:52:05.685Z,3.63
2022-10-22T13:54:38.269Z,3.28
2022-10-22T13:57:12.220Z,3.50
2022-10-22T13:59:43.744Z,3.15
2022-10-22T14:02:16.707Z,3.65
2022-10-22T14:04:53.007Z,3.55
2022-10-22T14:07:25.043Z,3.72
2022-10-22T14:09:56.793Z,3.67
2022-10-22T14:12:28.822Z,3.95
2022-10-22T14:15:00.567Z,3.90
2022-10-22T14:17:33.464Z,4.28
2022-10-22T14:20:08.161Z,3.72
2022-10-22T14:22:40.109Z,5.72
2022-10-22T14:25:16.039Z,4.13
2022-10-22T14:27:48.338Z,6.25
2022-10-22T14:30:22.099Z,8.52
2022-10-22T14:32:54.537Z,6.18
2022-10-22T14:35:29.161Z,4.35
2022-10-22T14:38:01.119Z,3.28
2022-10-22T14:40:32.872Z,3.30
2022-10-22T14:43:04.702Z,3.55
2022-10-22T14:45:36.284Z,3.58
2022-10-22T14:48:08.853Z,3.45
2022-10-22T14:50:43.338Z,4.50
2022-10-22T14:53:17.020Z,4.95
2022-10-22T14:55:51.770Z,4.90
2022-10-22T14:58:23.692Z,9.98
2022-10-22T15:00:55.408Z,4.75
2022-10-22T15:03:27.512Z,5.53
2022-10-22T15:06:01.850Z,5.13
2022-10-22T15:08:34.393Z,4.93
2022-10-22T15:11:07.812Z,5.38
2022-10-22T15:13:41.488Z,4.70
2022-10-22T15:16:16.291Z,4.70
2022-10-22T15:18:48.568Z,4.57
2022-10-22T15:21:24.971Z,5.00
2022-10-22T15:23:57.248Z,5.75
2022-10-22T15:26:29.511Z,8.52
2022-10-22T15:29:01.835Z,7.50
2022-10-22T15:31:48.926Z,6.18
2022-10-22T15:34:26.028Z,6.15
2022-10-22T15:37:02.507Z,6.50
2022-10-22T15:39:35.533Z,5.85
2022-10-22T15:42:10.682Z,5.95
2022-10-22T15:44:43.428Z,6.57
2022-10-22T15:47:15.371Z,7.25
2022-10-22T15:49:47.987Z,6.30
2022-10-22T15:52:22.765Z,7.28
2022-10-22T15:54:54.429Z,7.13
2022-10-22T15:57:25.776Z,7.15
2022-10-22T16:00:11.852Z,7.28
2022-10-22T16:02:45.265Z,7.22
2022-10-22T16:05:17.765Z,7.10
2022-10-22T16:07:51.615Z,6.28
2022-10-22T16:10:22.919Z,6.60
2022-10-22T16:12:54.741Z,6.10
2022-10-22T16:15:25.845Z,5.97
2022-10-22T16:17:56.608Z,5.90
2022-10-22T16:20:30.114Z,5.65
2022-10-22T16:23:03.599Z,5.70
2022-10-22T16:25:40.961Z,5.50
2022-10-22T16:28:13.790Z,5.43
2022-10-22T16:30:45.430Z,6.10
2022-10-22T16:33:16.182Z,6.28
2022-10-22T16:35:47.314Z,6.07
2022-10-22T16:38:23.801Z,6.75
2022-10-22T16:40:56.352Z,6.85
2022-10-22T16:43:29.941Z,7.35
2022-10-22T16:46:01.151Z,7.60
2022-10-22T16:48:32.740Z,7.40
2022-10-22T16:51:12.571Z,7.25
2022-10-22T16:53:46.476Z,7.88
2022-10-22T16:56:27.032Z,7.07
2022-10-22T16:59:01.256Z,7.38
2022-10-22T17:01:41.924Z,12.82
2022-10-22T17:04:21.703Z,8.23
2022-10-22T17:06:58.091Z,9.57
2022-10-22T17:09:32.693Z,8.90
2022-10-22T17:12:04.531Z,9.90
2022-10-22T17:14:35.997Z,9.02
2022-10-22T17:17:08.093Z,9.35
2022-10-22T17:19:41.490Z,9.40
2022-10-22T17:22:16.229Z,9.75
2022-10-22T17:25:11.217Z,9.57
2022-10-22T17:27:43.942Z,8.98
2022-10-22T17:30:23.477Z,8.50
2022-10-22T17:32:59.190Z,8.23
2022-10-22T17:35:31.081Z,8.85
2022-10-22T17:38:03.212Z,8.15
2022-10-22T17:40:39.376Z,8.32
2022-10-22T17:43:11.551Z,7.70
2022-10-22T17:45:43.571Z,7.50
2022-10-22T17:48:15.852Z,7.38
2022-10-22T17:50:50.393Z,7.95
2022-10-22T17:53:24.370Z,8.02
2022-10-22T17:56:07.453Z,7.60
2022-10-22T17:58:40.471Z,8.05
2022-10-22T18:01:20.956Z,8.10
2022-10-22T18:03:54.294Z,8.05
2022-10-22T18:06:26.611Z,8.50
2022-10-22T18:08:59.041Z,9.38
2022-10-22T18:11:36.635Z,9.10
2022-10-22T18:14:09.412Z,9.90
2022-10-22T18:16:42.573Z,10.13
2022-10-22T18:19:17.675Z,9.43
2022-10-22T18:21:50.032Z,10.45
2022-10-22T18:24:22.754Z,9.85
2022-10-22T18:26:58.411Z,12.70
2022-10-22T18:29:31.038Z,12.77
2022-10-22T18:32:09.422Z,10.35
2022-10-22T18:34:45.611Z,8.27
2022-10-22T18:37:18.091Z,8.32
2022-10-22T18:39:50.490Z,6.20
2022-10-22T18:42:27.414Z,6.63
2022-10-22T18:45:03.451Z,6.47
2022-10-22T18:47:35.712Z,6.28
2022-10-22T18:50:09.134Z,5.13
2022-10-22T18:52:42.632Z,5.85
2022-10-22T18:55:15.511Z,5.40
2022-10-22T18:57:49.835Z,5.93
2022-10-22T19:00:21.710Z,5.90
2022-10-22T19:02:53.096Z,5.57
2022-10-22T19:05:24.957Z,6.00
2022-10-22T19:07:59.862Z,6.68
2022-10-22T19:10:31.754Z,7.10
2022-10-22T19:13:11.118Z,7.30
2022-10-22T19:15:43.169Z,8.80
2022-10-22T19:18:16.121Z,8.35
2022-10-22T19:20:50.812Z,8.63
2022-10-22T19:23:22.059Z,9.52
2022-10-22T19:26:03.431Z,8.77
2022-10-22T19:28:37.838Z,8.82
2022-10-22T19:31:10.575Z,8.15
2022-10-22T19:33:43.343Z,7.65
2022-10-22T19:36:19.837Z,7.43
2022-10-22T19:38:52.010Z,7.45
2022-10-22T19:41:27.073Z,6.90
2022-10-22T19:44:03.627Z,7.03
2022-10-22T19:46:36.229Z,6.43
2022-10-22T19:49:08.989Z,6.13
2022-10-22T19:51:41.329Z,5.90
2022-10-22T19:54:20.909Z,6.60
2022-10-22T19:56:58.330Z,6.30
2022-10-22T19:59:34.450Z,7.82
2022-10-22T20:02:07.007Z,8.00
2022-10-22T20:04:50.089Z,8.10
2022-10-22T20:07:23.316Z,7.50
2022-10-22T20:09:55.607Z,7.50
2022-10-22T20:12:39.750Z,7.68
2022-10-22T20:15:14.949Z,7.03
2022-10-22T20:17:47.748Z,7.03
2022-10-22T20:20:21.962Z,7.30
2022-10-22T20:22:58.467Z,8.10
2022-10-22T20:25:30.729Z,9.27
2022-10-22T20:28:03.248Z,7.65
2022-10-22T20:30:38.427Z,9.70
2022-10-22T20:33:10.907Z,7.63
2022-10-22T20:35:43.288Z,6.38
2022-10-22T20:38:17.968Z,5.47
2022-10-22T20:40:50.167Z,6.38
2022-10-22T20:43:22.849Z,6.30
2022-10-22T20:45:57.627Z,8.32
2022-10-22T20:48:31.807Z,7.80
2022-10-22T20:51:05.369Z,5.40
2022-10-22T20:53:37.497Z,5.95
2022-10-22T20:56:10.916Z,5.40
2022-10-22T20:58:53.986Z,5.35
2022-10-22T21:01:28.705Z,5.63
2022-10-22T21:04:00.098Z,4.68
2022-10-22T21:06:33.233Z,5.32
2022-10-22T21:09:05.782Z,5.60
2022-10-22T21:11:37.740Z,5.85
2022-10-22T21:14:11.098Z,5.65
2022-10-22T21:16:49.526Z,5.68
2022-10-22T21:19:22.705Z,6.40
2022-10-22T21:21:53.815Z,6.20
2022-10-22T21:24:26.643Z,6.40
2022-10-22T21:26:57.871Z,5.65
2022-10-22T21:29:29.297Z,7.15
2022-10-22T21:32:03.014Z,7.60
2022-10-22T21:34:38.825Z,6.32
2022-10-22T21:37:10.584Z,7.88
2022-10-22T21:39:42.274Z,7.25
2022-10-22T21:42:18.076Z,5.68
2022-10-22T21:44:49.699Z,6.40
2022-10-22T21:47:23.676Z,6.53
2022-10-22T21:49:56.785Z,6.22
2022-10-22T21:52:28.755Z,6.28
2022-10-22T21:55:00.917Z,6.35
2022-10-22T21:57:32.887Z,5.78
2022-10-22T22:00:05.240Z,5.65
2022-10-22T22:02:40.047Z,5.75
2022-10-22T22:05:13.336Z,6.10
2022-10-22T22:07:45.257Z,6.20
2022-10-22T22:10:17.537Z,6.38
2022-10-22T22:12:49.395Z,6.00
2022-10-22T22:15:22.997Z,6.13
2022-10-22T22:17:57.583Z,6.30
2022-10-22T22:20:29.935Z,6.25
2022-10-22T22:23:01.795Z,6.65
2022-10-22T22:25:34.003Z,6.20
2022-10-22T22:28:05.974Z,7.00
2022-10-22T22:30:38.374Z,7.03
2022-10-22T22:33:12.974Z,7.05
2022-10-22T22:35:45.478Z,7.03
2022-10-22T22:38:17.515Z,8.02
2022-10-22T22:40:49.714Z,7.75
2022-10-22T22:43:21.556Z,7.38
2022-10-22T22:46:02.497Z,7.93
2022-10-22T22:48:37.617Z,7.85
2022-10-22T22:51:10.955Z,8.45
2022-10-22T22:53:42.898Z,8.55
2022-10-22T22:56:16.756Z,8.07
2022-10-22T22:59:09.015Z,8.88
2022-10-22T23:01:45.633Z,8.68
2022-10-22T23:04:23.893Z,8.60
2022-10-22T23:06:58.710Z,8.35
2022-10-22T23:10:07.477Z,8.90
2022-10-22T23:12:39.884Z,8.13
2022-10-22T23:15:12.719Z,9.07
2022-10-22T23:17:45.020Z,8.85
2022-10-22T23:20:19.618Z,9.18
2022-10-22T23:22:51.879Z,9.27
2022-10-22T23:25:23.765Z,8.80
2022-10-22T23:27:55.938Z,9.35
2022-10-22T23:30:27.997Z,9.68
2022-10-22T23:33:00.084Z,9.90
2022-10-22T23:35:34.696Z,10.40
2022-10-22T23:38:06.859Z,9.73
2022-10-22T23:40:38.757Z,10.23
2022-10-22T23:43:12.038Z,10.68
2022-10-22T23:45:43.819Z,10.43
2022-10-22T23:48:15.977Z,9.98
2022-10-22T23:50:50.946Z,11.10
2022-10-22T23:53:23.077Z,10.32
2022-10-22T23:55:54.937Z,10.38
2022-10-22T23:58:27.097Z,10.65
